sensor_id;sensor_type;location;lat;lon;timestamp;temperature;humidity
39079;DHT22;24829;49.208;12.080;2024-02-23T00:01:36;8.60;99.90
39079;DHT22;24829;49.208;12.080;2024-02-23T00:04:02;8.50;99.90
39079;DHT22;24829;49.208;12.080;2024-02-23T00:06:28;8.40;99.90
39079;DHT22;24829;49.208;12.080;2024-02-23T00:08:54;8.30;99.90
39079;DHT22;24829;49.208;12.080;2024-02-23T00:11:23;8.30;99.90
39079;DHT22;24829;49.208;12.080;2024-02-23T00:13:49;8.30;99.90
39079;DHT22;24829;49.208;12.080;2024-02-23T00:16:14;8.20;99.90
39079;DHT22;24829;49.208;12.080;2024-02-23T00:18:40;8.20;99.90
39079;DHT22;24829;49.208;12.080;2024-02-23T00:21:06;8.20;99.90
39079;DHT22;24829;49.208;12.080;2024-02-23T00:23:31;8.20;99.90
39079;DHT22;24829;49.208;12.080;2024-02-23T00:25:57;8.20;99.90
39079;DHT22;24829;49.208;12.080;2024-02-23T00:28:23;8.20;99.90
39079;DHT22;24829;49.208;12.080;2024-02-23T00:30:48;8.20;99.90
39079;DHT22;24829;49.208;12.080;2024-02-23T00:33:14;8.20;99.90
39079;DHT22;24829;49.208;12.080;2024-02-23T00:35:40;8.20;99.90
39079;DHT22;24829;49.208;12.080;2024-02-23T00:38:05;8.30;99.90
39079;DHT22;24829;49.208;12.080;2024-02-23T00:40:33;8.30;99.90
39079;DHT22;24829;49.208;12.080;2024-02-23T00:42:58;8.30;99.90
39079;DHT22;24829;49.208;12.080;2024-02-23T00:45:25;8.30;99.90
39079;DHT22;24829;49.208;12.080;2024-02-23T00:47:51;8.30;99.90
39079;DHT22;24829;49.208;12.080;2024-02-23T00:50:16;8.30;99.90
39079;DHT22;24829;49.208;12.080;2024-02-23T00:52:42;8.30;99.90
39079;DHT22;24829;49.208;12.080;2024-02-23T00:55:08;8.20;99.90
39079;DHT22;24829;49.208;12.080;2024-02-23T00:57:38;8.30;99.90
39079;DHT22;24829;49.208;12.080;2024-02-23T01:00:04;8.30;99.90
39079;DHT22;24829;49.208;12.080;2024-02-23T01:02:31;8.20;99.90
39079;DHT22;24829;49.208;12.080;2024-02-23T01:04:58;8.10;99.90
39079;DHT22;24829;49.208;12.080;2024-02-23T01:07:24;8.20;99.90
39079;DHT22;24829;49.208;12.080;2024-02-23T01:09:50;8.10;99.90
39079;DHT22;24829;49.208;12.080;2024-02-23T01:12:16;8.10;99.90
39079;DHT22;24829;49.208;12.080;2024-02-23T01:14:42;8.20;99.90
39079;DHT22;24829;49.208;12.080;2024-02-23T01:17:07;8.20;99.90
39079;DHT22;24829;49.208;12.080;2024-02-23T01:19:33;8.30;99.90
39079;DHT22;24829;49.208;12.080;2024-02-23T01:21:59;8.30;99.90
39079;DHT22;24829;49.208;12.080;2024-02-23T01:24:26;8.30;99.90
39079;DHT22;24829;49.208;12.080;2024-02-23T01:26:53;8.30;99.90
39079;DHT22;24829;49.208;12.080;2024-02-23T01:29:20;8.20;99.90
39079;DHT22;24829;49.208;12.080;2024-02-23T01:31:47;8.10;99.90
39079;DHT22;24829;49.208;12.080;2024-02-23T01:34:13;7.90;99.90
39079;DHT22;24829;49.208;12.080;2024-02-23T01:36:39;7.90;99.90
39079;DHT22;24829;49.208;12.080;2024-02-23T01:39:05;7.80;99.90
39079;DHT22;24829;49.208;12.080;2024-02-23T01:41:30;7.70;99.90
39079;DHT22;24829;49.208;12.080;2024-02-23T01:43:56;7.70;99.90
39079;DHT22;24829;49.208;12.080;2024-02-23T01:46:21;7.60;99.90
39079;DHT22;24829;49.208;12.080;2024-02-23T01:48:47;7.50;99.90
39079;DHT22;24829;49.208;12.080;2024-02-23T01:51:13;7.50;99.90
39079;DHT22;24829;49.208;12.080;2024-02-23T01:53:39;7.40;99.90
39079;DHT22;24829;49.208;12.080;2024-02-23T01:56:05;7.30;99.90
39079;DHT22;24829;49.208;12.080;2024-02-23T01:58:33;7.20;99.90
39079;DHT22;24829;49.208;12.080;2024-02-23T02:01:00;7.20;99.90
39079;DHT22;24829;49.208;12.080;2024-02-23T02:03:26;7.10;99.90
39079;DHT22;24829;49.208;12.080;2024-02-23T02:05:53;7.00;99.90
39079;DHT22;24829;49.208;12.080;2024-02-23T02:08:19;6.90;99.90
39079;DHT22;24829;49.208;12.080;2024-02-23T02:10:45;6.90;99.90
39079;DHT22;24829;49.208;12.080;2024-02-23T02:13:12;6.90;99.90
39079;DHT22;24829;49.208;12.080;2024-02-23T02:15:38;6.80;99.90
39079;DHT22;24829;49.208;12.080;2024-02-23T02:18:04;6.80;99.90
39079;DHT22;24829;49.208;12.080;2024-02-23T02:20:32;6.70;99.90
39079;DHT22;24829;49.208;12.080;2024-02-23T02:22:58;6.70;99.90
39079;DHT22;24829;49.208;12.080;2024-02-23T02:25:24;6.70;99.90
39079;DHT22;24829;49.208;12.080;2024-02-23T02:27:50;6.80;99.90
39079;DHT22;24829;49.208;12.080;2024-02-23T02:30:16;6.70;99.90
39079;DHT22;24829;49.208;12.080;2024-02-23T02:32:41;6.80;99.90
39079;DHT22;24829;49.208;12.080;2024-02-23T02:35:07;6.70;99.90
39079;DHT22;24829;49.208;12.080;2024-02-23T02:37:33;6.70;99.90
39079;DHT22;24829;49.208;12.080;2024-02-23T02:39:59;6.70;99.90
39079;DHT22;24829;49.208;12.080;2024-02-23T02:42:24;6.70;99.90
39079;DHT22;24829;49.208;12.080;2024-02-23T02:44:50;6.60;99.90
39079;DHT22;24829;49.208;12.080;2024-02-23T02:47:15;6.60;99.90
39079;DHT22;24829;49.208;12.080;2024-02-23T02:49:41;6.60;99.90
39079;DHT22;24829;49.208;12.080;2024-02-23T02:52:06;6.60;99.90
39079;DHT22;24829;49.208;12.080;2024-02-23T02:54:34;6.60;99.90
39079;DHT22;24829;49.208;12.080;2024-02-23T02:56:59;6.60;99.90
39079;DHT22;24829;49.208;12.080;2024-02-23T02:59:25;6.60;99.90
39079;DHT22;24829;49.208;12.080;2024-02-23T03:01:50;6.60;99.90
39079;DHT22;24829;49.208;12.080;2024-02-23T03:04:16;6.60;99.90
39079;DHT22;24829;49.208;12.080;2024-02-23T03:06:42;6.60;99.90
39079;DHT22;24829;49.208;12.080;2024-02-23T03:09:07;6.60;99.90
39079;DHT22;24829;49.208;12.080;2024-02-23T03:11:33;6.50;99.90
39079;DHT22;24829;49.208;12.080;2024-02-23T03:13:59;6.50;99.90
39079;DHT22;24829;49.208;12.080;2024-02-23T03:16:24;6.40;99.90
39079;DHT22;24829;49.208;12.080;2024-02-23T03:18:54;6.30;99.90
39079;DHT22;24829;49.208;12.080;2024-02-23T03:21:20;6.40;99.90
39079;DHT22;24829;49.208;12.080;2024-02-23T03:23:45;6.40;99.90
39079;DHT22;24829;49.208;12.080;2024-02-23T03:26:11;6.40;99.90
39079;DHT22;24829;49.208;12.080;2024-02-23T03:28:37;6.40;99.90
39079;DHT22;24829;49.208;12.080;2024-02-23T03:31:03;6.40;99.90
39079;DHT22;24829;49.208;12.080;2024-02-23T03:33:28;6.30;99.90
39079;DHT22;24829;49.208;12.080;2024-02-23T03:35:54;6.30;99.90
39079;DHT22;24829;49.208;12.080;2024-02-23T03:38:20;6.40;99.90
39079;DHT22;24829;49.208;12.080;2024-02-23T03:40:46;6.30;99.90
39079;DHT22;24829;49.208;12.080;2024-02-23T03:43:12;6.30;99.90
39079;DHT22;24829;49.208;12.080;2024-02-23T03:45:37;6.20;99.90
39079;DHT22;24829;49.208;12.080;2024-02-23T03:48:04;6.30;99.90
39079;DHT22;24829;49.208;12.080;2024-02-23T03:50:30;6.20;99.90
39079;DHT22;24829;49.208;12.080;2024-02-23T03:52:56;6.30;99.90
39079;DHT22;24829;49.208;12.080;2024-02-23T03:55:22;6.30;99.90
39079;DHT22;24829;49.208;12.080;2024-02-23T03:57:48;6.20;99.90
39079;DHT22;24829;49.208;12.080;2024-02-23T04:00:14;6.20;99.90
39079;DHT22;24829;49.208;12.080;2024-02-23T04:02:40;6.20;99.90
39079;DHT22;24829;49.208;12.080;2024-02-23T04:05:06;6.20;99.90
39079;DHT22;24829;49.208;12.080;2024-02-23T04:07:32;6.20;99.90
39079;DHT22;24829;49.208;12.080;2024-02-23T04:09:57;6.20;99.90
39079;DHT22;24829;49.208;12.080;2024-02-23T04:12:23;6.20;99.90
39079;DHT22;24829;49.208;12.080;2024-02-23T04:14:49;6.10;99.90
39079;DHT22;24829;49.208;12.080;2024-02-23T04:17:15;6.10;99.90
39079;DHT22;24829;49.208;12.080;2024-02-23T04:19:41;6.00;99.90
39079;DHT22;24829;49.208;12.080;2024-02-23T04:22:08;6.00;99.90
39079;DHT22;24829;49.208;12.080;2024-02-23T04:24:36;6.00;99.90
39079;DHT22;24829;49.208;12.080;2024-02-23T04:27:04;5.90;99.90
39079;DHT22;24829;49.208;12.080;2024-02-23T04:29:29;5.80;99.90
39079;DHT22;24829;49.208;12.080;2024-02-23T04:31:55;5.80;99.90
39079;DHT22;24829;49.208;12.080;2024-02-23T04:34:21;5.80;99.90
39079;DHT22;24829;49.208;12.080;2024-02-23T04:36:46;5.80;99.90
39079;DHT22;24829;49.208;12.080;2024-02-23T04:39:12;5.80;99.90
39079;DHT22;24829;49.208;12.080;2024-02-23T04:41:37;5.80;99.90
39079;DHT22;24829;49.208;12.080;2024-02-23T04:44:03;5.80;99.90
39079;DHT22;24829;49.208;12.080;2024-02-23T04:46:30;5.80;99.90
39079;DHT22;24829;49.208;12.080;2024-02-23T04:48:56;5.80;99.90
39079;DHT22;24829;49.208;12.080;2024-02-23T04:51:21;5.80;99.90
39079;DHT22;24829;49.208;12.080;2024-02-23T04:53:49;5.90;99.90
39079;DHT22;24829;49.208;12.080;2024-02-23T04:56:15;5.90;99.90
39079;DHT22;24829;49.208;12.080;2024-02-23T04:58:40;5.90;99.90
39079;DHT22;24829;49.208;12.080;2024-02-23T05:01:09;5.90;99.90
39079;DHT22;24829;49.208;12.080;2024-02-23T05:03:34;5.80;99.90
39079;DHT22;24829;49.208;12.080;2024-02-23T05:06:01;5.80;99.90
39079;DHT22;24829;49.208;12.080;2024-02-23T05:08:27;5.80;99.90
39079;DHT22;24829;49.208;12.080;2024-02-23T05:10:53;5.80;99.90
39079;DHT22;24829;49.208;12.080;2024-02-23T05:13:19;5.80;99.90
39079;DHT22;24829;49.208;12.080;2024-02-23T05:15:44;5.90;99.90
39079;DHT22;24829;49.208;12.080;2024-02-23T05:18:10;5.80;99.90
39079;DHT22;24829;49.208;12.080;2024-02-23T05:20:36;5.80;99.90
39079;DHT22;24829;49.208;12.080;2024-02-23T05:23:01;5.90;99.90
39079;DHT22;24829;49.208;12.080;2024-02-23T05:25:27;5.80;99.90
39079;DHT22;24829;49.208;12.080;2024-02-23T05:27:53;5.80;99.90
39079;DHT22;24829;49.208;12.080;2024-02-23T05:30:19;5.70;99.90
39079;DHT22;24829;49.208;12.080;2024-02-23T05:32:44;5.60;99.90
39079;DHT22;24829;49.208;12.080;2024-02-23T05:35:10;5.50;99.90
39079;DHT22;24829;49.208;12.080;2024-02-23T05:37:36;5.50;99.90
39079;DHT22;24829;49.208;12.080;2024-02-23T05:40:03;5.50;99.90
39079;DHT22;24829;49.208;12.080;2024-02-23T05:42:38;5.50;99.90
39079;DHT22;24829;49.208;12.080;2024-02-23T05:45:06;5.50;99.90
39079;DHT22;24829;49.208;12.080;2024-02-23T05:47:34;5.50;99.90
39079;DHT22;24829;49.208;12.080;2024-02-23T05:50:00;5.50;99.90
39079;DHT22;24829;49.208;12.080;2024-02-23T05:52:26;5.50;99.90
39079;DHT22;24829;49.208;12.080;2024-02-23T05:54:52;5.40;99.90
39079;DHT22;24829;49.208;12.080;2024-02-23T05:57:19;5.50;99.90
39079;DHT22;24829;49.208;12.080;2024-02-23T05:59:44;5.50;99.90
39079;DHT22;24829;49.208;12.080;2024-02-23T06:02:10;5.50;99.90
39079;DHT22;24829;49.208;12.080;2024-02-23T06:04:36;5.50;99.90
39079;DHT22;24829;49.208;12.080;2024-02-23T06:07:01;5.50;99.90
39079;DHT22;24829;49.208;12.080;2024-02-23T06:09:27;5.50;99.90
39079;DHT22;24829;49.208;12.080;2024-02-23T06:11:53;5.50;99.90
39079;DHT22;24829;49.208;12.080;2024-02-23T06:14:18;5.60;99.90
39079;DHT22;24829;49.208;12.080;2024-02-23T06:16:44;5.60;99.90
39079;DHT22;24829;49.208;12.080;2024-02-23T06:19:09;5.50;99.90
39079;DHT22;24829;49.208;12.080;2024-02-23T06:21:35;5.60;99.90
39079;DHT22;24829;49.208;12.080;2024-02-23T06:24:01;5.60;99.90
39079;DHT22;24829;49.208;12.080;2024-02-23T06:26:28;5.60;99.90
39079;DHT22;24829;49.208;12.080;2024-02-23T06:28:53;5.60;99.90
39079;DHT22;24829;49.208;12.080;2024-02-23T06:31:19;5.60;99.90
39079;DHT22;24829;49.208;12.080;2024-02-23T06:33:44;5.70;99.90
39079;DHT22;24829;49.208;12.080;2024-02-23T06:36:14;5.70;99.90
39079;DHT22;24829;49.208;12.080;2024-02-23T06:38:40;5.70;99.90
39079;DHT22;24829;49.208;12.080;2024-02-23T06:41:05;5.60;99.90
39079;DHT22;24829;49.208;12.080;2024-02-23T06:43:32;5.60;99.90
39079;DHT22;24829;49.208;12.080;2024-02-23T06:45:58;5.50;99.90
39079;DHT22;24829;49.208;12.080;2024-02-23T06:48:23;5.50;99.90
39079;DHT22;24829;49.208;12.080;2024-02-23T06:50:49;5.40;99.90
39079;DHT22;24829;49.208;12.080;2024-02-23T06:53:15;5.40;99.90
39079;DHT22;24829;49.208;12.080;2024-02-23T06:55:41;5.30;99.90
39079;DHT22;24829;49.208;12.080;2024-02-23T06:58:07;5.30;99.90
39079;DHT22;24829;49.208;12.080;2024-02-23T07:00:32;5.30;99.90
39079;DHT22;24829;49.208;12.080;2024-02-23T07:02:58;5.20;99.90
39079;DHT22;24829;49.208;12.080;2024-02-23T07:05:24;5.20;99.90
39079;DHT22;24829;49.208;12.080;2024-02-23T07:07:51;5.30;99.90
39079;DHT22;24829;49.208;12.080;2024-02-23T07:10:16;5.30;99.90
39079;DHT22;24829;49.208;12.080;2024-02-23T07:12:43;5.30;99.90
39079;DHT22;24829;49.208;12.080;2024-02-23T07:15:10;5.20;99.90
39079;DHT22;24829;49.208;12.080;2024-02-23T07:17:35;5.20;99.90
39079;DHT22;24829;49.208;12.080;2024-02-23T07:20:01;5.10;99.90
39079;DHT22;24829;49.208;12.080;2024-02-23T07:22:31;5.10;99.90
39079;DHT22;24829;49.208;12.080;2024-02-23T07:24:57;5.00;99.90
39079;DHT22;24829;49.208;12.080;2024-02-23T07:27:22;5.00;99.90
39079;DHT22;24829;49.208;12.080;2024-02-23T07:29:48;5.00;99.90
39079;DHT22;24829;49.208;12.080;2024-02-23T07:32:13;5.00;99.90
39079;DHT22;24829;49.208;12.080;2024-02-23T07:34:39;4.90;99.90
39079;DHT22;24829;49.208;12.080;2024-02-23T07:37:05;4.90;99.90
39079;DHT22;24829;49.208;12.080;2024-02-23T07:39:30;4.90;99.90
39079;DHT22;24829;49.208;12.080;2024-02-23T07:41:56;5.00;99.90
39079;DHT22;24829;49.208;12.080;2024-02-23T07:44:22;5.00;99.90
39079;DHT22;24829;49.208;12.080;2024-02-23T07:46:48;5.00;99.90
39079;DHT22;24829;49.208;12.080;2024-02-23T07:49:13;5.00;99.90
39079;DHT22;24829;49.208;12.080;2024-02-23T07:51:39;5.10;99.90
39079;DHT22;24829;49.208;12.080;2024-02-23T07:54:04;5.10;99.90
39079;DHT22;24829;49.208;12.080;2024-02-23T07:56:30;5.10;99.90
39079;DHT22;24829;49.208;12.080;2024-02-23T07:58:56;5.10;99.90
39079;DHT22;24829;49.208;12.080;2024-02-23T08:01:23;5.10;99.90
39079;DHT22;24829;49.208;12.080;2024-02-23T08:03:48;5.20;99.90
39079;DHT22;24829;49.208;12.080;2024-02-23T08:06:14;5.20;99.90
39079;DHT22;24829;49.208;12.080;2024-02-23T08:08:39;5.30;99.90
39079;DHT22;24829;49.208;12.080;2024-02-23T08:11:05;5.20;99.90
39079;DHT22;24829;49.208;12.080;2024-02-23T08:13:31;5.30;99.90
39079;DHT22;24829;49.208;12.080;2024-02-23T08:15:57;5.30;99.90
39079;DHT22;24829;49.208;12.080;2024-02-23T08:18:23;5.30;99.90
39079;DHT22;24829;49.208;12.080;2024-02-23T08:20:49;5.30;99.90
39079;DHT22;24829;49.208;12.080;2024-02-23T08:23:15;5.40;99.90
39079;DHT22;24829;49.208;12.080;2024-02-23T08:25:40;5.40;99.90
39079;DHT22;24829;49.208;12.080;2024-02-23T08:28:06;5.40;99.90
39079;DHT22;24829;49.208;12.080;2024-02-23T08:30:32;5.40;99.90
39079;DHT22;24829;49.208;12.080;2024-02-23T08:32:58;5.40;99.90
39079;DHT22;24829;49.208;12.080;2024-02-23T08:35:25;5.40;99.90
39079;DHT22;24829;49.208;12.080;2024-02-23T08:37:50;5.40;99.90
39079;DHT22;24829;49.208;12.080;2024-02-23T08:40:16;5.40;99.90
39079;DHT22;24829;49.208;12.080;2024-02-23T08:42:42;5.50;99.90
39079;DHT22;24829;49.208;12.080;2024-02-23T08:45:08;5.40;99.90
39079;DHT22;24829;49.208;12.080;2024-02-23T08:47:35;5.40;99.90
39079;DHT22;24829;49.208;12.080;2024-02-23T08:50:01;5.40;99.90
39079;DHT22;24829;49.208;12.080;2024-02-23T08:52:27;5.40;99.90
39079;DHT22;24829;49.208;12.080;2024-02-23T08:54:52;5.50;99.90
39079;DHT22;24829;49.208;12.080;2024-02-23T08:57:18;5.50;99.90
39079;DHT22;24829;49.208;12.080;2024-02-23T08:59:49;5.60;99.90
39079;DHT22;24829;49.208;12.080;2024-02-23T09:02:15;5.60;99.90
39079;DHT22;24829;49.208;12.080;2024-02-23T09:04:40;5.70;99.90
39079;DHT22;24829;49.208;12.080;2024-02-23T09:07:06;5.80;99.90
39079;DHT22;24829;49.208;12.080;2024-02-23T09:09:32;5.80;99.90
39079;DHT22;24829;49.208;12.080;2024-02-23T09:11:57;5.90;99.90
39079;DHT22;24829;49.208;12.080;2024-02-23T09:14:23;6.00;99.90
39079;DHT22;24829;49.208;12.080;2024-02-23T09:16:51;6.00;99.90
39079;DHT22;24829;49.208;12.080;2024-02-23T09:19:17;6.00;99.90
39079;DHT22;24829;49.208;12.080;2024-02-23T09:21:44;6.10;99.90
39079;DHT22;24829;49.208;12.080;2024-02-23T09:24:09;6.10;99.90
39079;DHT22;24829;49.208;12.080;2024-02-23T09:26:35;6.20;99.90
39079;DHT22;24829;49.208;12.080;2024-02-23T09:29:00;6.20;99.90
39079;DHT22;24829;49.208;12.080;2024-02-23T09:31:26;6.30;99.90
39079;DHT22;24829;49.208;12.080;2024-02-23T09:33:54;6.30;99.90
39079;DHT22;24829;49.208;12.080;2024-02-23T09:36:20;6.20;99.90
39079;DHT22;24829;49.208;12.080;2024-02-23T09:38:47;6.20;99.90
39079;DHT22;24829;49.208;12.080;2024-02-23T09:41:21;6.20;99.90
39079;DHT22;24829;49.208;12.080;2024-02-23T09:43:48;6.20;99.90
39079;DHT22;24829;49.208;12.080;2024-02-23T09:46:15;6.20;99.90
39079;DHT22;24829;49.208;12.080;2024-02-23T09:48:45;6.20;99.90
39079;DHT22;24829;49.208;12.080;2024-02-23T09:51:11;6.30;99.90
39079;DHT22;24829;49.208;12.080;2024-02-23T09:53:38;6.30;99.90
39079;DHT22;24829;49.208;12.080;2024-02-23T09:56:05;6.30;99.90
39079;DHT22;24829;49.208;12.080;2024-02-23T09:58:32;6.30;99.90
39079;DHT22;24829;49.208;12.080;2024-02-23T10:00:58;6.30;99.90
39079;DHT22;24829;49.208;12.080;2024-02-23T10:03:26;6.30;99.90
39079;DHT22;24829;49.208;12.080;2024-02-23T10:05:54;6.30;99.90
39079;DHT22;24829;49.208;12.080;2024-02-23T10:08:20;6.40;99.90
39079;DHT22;24829;49.208;12.080;2024-02-23T10:10:46;6.40;99.90
39079;DHT22;24829;49.208;12.080;2024-02-23T10:13:12;6.40;99.90
39079;DHT22;24829;49.208;12.080;2024-02-23T10:15:38;6.40;99.90
39079;DHT22;24829;49.208;12.080;2024-02-23T10:18:04;6.40;99.90
39079;DHT22;24829;49.208;12.080;2024-02-23T10:20:30;6.40;99.90
39079;DHT22;24829;49.208;12.080;2024-02-23T10:22:56;6.40;99.90
39079;DHT22;24829;49.208;12.080;2024-02-23T10:25:22;6.40;99.90
39079;DHT22;24829;49.208;12.080;2024-02-23T10:27:48;6.40;99.90
39079;DHT22;24829;49.208;12.080;2024-02-23T10:30:14;6.40;99.90
39079;DHT22;24829;49.208;12.080;2024-02-23T10:32:43;6.40;99.90
39079;DHT22;24829;49.208;12.080;2024-02-23T10:35:13;6.40;99.90
39079;DHT22;24829;49.208;12.080;2024-02-23T10:37:44;6.30;99.90
39079;DHT22;24829;49.208;12.080;2024-02-23T10:40:16;6.30;99.90
39079;DHT22;24829;49.208;12.080;2024-02-23T10:42:44;6.30;99.90
39079;DHT22;24829;49.208;12.080;2024-02-23T10:45:20;6.30;99.90
39079;DHT22;24829;49.208;12.080;2024-02-23T10:47:51;6.30;99.90
39079;DHT22;24829;49.208;12.080;2024-02-23T10:50:17;6.30;99.90
39079;DHT22;24829;49.208;12.080;2024-02-23T10:52:45;6.30;99.90
39079;DHT22;24829;49.208;12.080;2024-02-23T10:55:13;6.30;99.90
39079;DHT22;24829;49.208;12.080;2024-02-23T10:57:39;6.30;99.90
39079;DHT22;24829;49.208;12.080;2024-02-23T11:00:06;6.30;99.90
39079;DHT22;24829;49.208;12.080;2024-02-23T11:02:46;6.30;99.90
39079;DHT22;24829;49.208;12.080;2024-02-23T11:05:15;6.30;99.90
39079;DHT22;24829;49.208;12.080;2024-02-23T11:07:41;6.40;99.90
39079;DHT22;24829;49.208;12.080;2024-02-23T11:10:07;6.40;99.90
39079;DHT22;24829;49.208;12.080;2024-02-23T11:12:35;6.40;99.90
39079;DHT22;24829;49.208;12.080;2024-02-23T11:15:01;6.40;99.90
39079;DHT22;24829;49.208;12.080;2024-02-23T11:17:28;6.50;99.90
39079;DHT22;24829;49.208;12.080;2024-02-23T11:19:56;6.50;99.90
39079;DHT22;24829;49.208;12.080;2024-02-23T11:22:32;6.40;99.90
39079;DHT22;24829;49.208;12.080;2024-02-23T11:25:04;6.40;99.90
39079;DHT22;24829;49.208;12.080;2024-02-23T11:27:40;6.50;99.90
39079;DHT22;24829;49.208;12.080;2024-02-23T11:30:09;6.50;99.90
39079;DHT22;24829;49.208;12.080;2024-02-23T11:35:03;6.50;99.90
39079;DHT22;24829;49.208;12.080;2024-02-23T11:37:31;6.60;99.90
39079;DHT22;24829;49.208;12.080;2024-02-23T11:39:56;6.60;99.90
39079;DHT22;24829;49.208;12.080;2024-02-23T11:42:27;6.50;99.90
39079;DHT22;24829;49.208;12.080;2024-02-23T11:44:53;6.50;99.90
39079;DHT22;24829;49.208;12.080;2024-02-23T11:47:21;6.50;99.90
39079;DHT22;24829;49.208;12.080;2024-02-23T11:49:47;6.50;99.90
39079;DHT22;24829;49.208;12.080;2024-02-23T11:52:12;6.50;99.90
39079;DHT22;24829;49.208;12.080;2024-02-23T11:54:38;6.50;99.90
39079;DHT22;24829;49.208;12.080;2024-02-23T11:57:04;6.50;99.90
39079;DHT22;24829;49.208;12.080;2024-02-23T11:59:30;6.50;99.90
39079;DHT22;24829;49.208;12.080;2024-02-23T12:01:55;6.50;99.90
39079;DHT22;24829;49.208;12.080;2024-02-23T12:04:21;6.50;99.90
39079;DHT22;24829;49.208;12.080;2024-02-23T12:06:47;6.50;99.90
39079;DHT22;24829;49.208;12.080;2024-02-23T12:09:13;6.60;99.90
39079;DHT22;24829;49.208;12.080;2024-02-23T12:11:39;6.60;99.90
39079;DHT22;24829;49.208;12.080;2024-02-23T12:14:05;6.60;99.90
39079;DHT22;24829;49.208;12.080;2024-02-23T12:16:35;6.60;99.90
39079;DHT22;24829;49.208;12.080;2024-02-23T12:19:03;6.70;99.90
39079;DHT22;24829;49.208;12.080;2024-02-23T12:21:29;6.70;99.90
39079;DHT22;24829;49.208;12.080;2024-02-23T12:23:54;6.70;99.90
39079;DHT22;24829;49.208;12.080;2024-02-23T12:26:20;6.70;99.90
39079;DHT22;24829;49.208;12.080;2024-02-23T12:28:46;6.70;99.90
39079;DHT22;24829;49.208;12.080;2024-02-23T12:31:12;6.70;99.90
39079;DHT22;24829;49.208;12.080;2024-02-23T12:33:39;6.70;99.90
39079;DHT22;24829;49.208;12.080;2024-02-23T12:36:06;6.70;99.90
39079;DHT22;24829;49.208;12.080;2024-02-23T12:38:32;6.70;99.90
39079;DHT22;24829;49.208;12.080;2024-02-23T12:40:58;6.60;99.90
39079;DHT22;24829;49.208;12.080;2024-02-23T12:43:24;6.60;99.90
39079;DHT22;24829;49.208;12.080;2024-02-23T12:45:53;6.60;99.90
39079;DHT22;24829;49.208;12.080;2024-02-23T12:48:22;6.60;99.90
39079;DHT22;24829;49.208;12.080;2024-02-23T12:50:49;6.50;99.90
39079;DHT22;24829;49.208;12.080;2024-02-23T12:53:34;6.60;99.90
39079;DHT22;24829;49.208;12.080;2024-02-23T12:56:04;6.60;99.90
39079;DHT22;24829;49.208;12.080;2024-02-23T12:58:31;6.60;99.90
39079;DHT22;24829;49.208;12.080;2024-02-23T13:00:57;6.60;99.90
39079;DHT22;24829;49.208;12.080;2024-02-23T13:03:24;6.60;99.90
39079;DHT22;24829;49.208;12.080;2024-02-23T13:05:50;6.50;99.90
39079;DHT22;24829;49.208;12.080;2024-02-23T13:08:16;6.50;99.90
39079;DHT22;24829;49.208;12.080;2024-02-23T13:10:43;6.50;99.90
39079;DHT22;24829;49.208;12.080;2024-02-23T13:13:08;6.50;99.90
39079;DHT22;24829;49.208;12.080;2024-02-23T13:15:34;6.50;99.90
39079;DHT22;24829;49.208;12.080;2024-02-23T13:18:02;6.50;99.90
39079;DHT22;24829;49.208;12.080;2024-02-23T13:20:28;6.60;99.90
39079;DHT22;24829;49.208;12.080;2024-02-23T13:22:53;6.60;99.90
39079;DHT22;24829;49.208;12.080;2024-02-23T13:25:19;6.60;99.90
39079;DHT22;24829;49.208;12.080;2024-02-23T13:27:44;6.70;99.90
39079;DHT22;24829;49.208;12.080;2024-02-23T13:30:10;6.70;99.90
39079;DHT22;24829;49.208;12.080;2024-02-23T13:32:37;6.60;99.90
39079;DHT22;24829;49.208;12.080;2024-02-23T13:35:03;6.60;99.90
39079;DHT22;24829;49.208;12.080;2024-02-23T13:37:31;6.70;99.90
39079;DHT22;24829;49.208;12.080;2024-02-23T13:39:57;6.70;99.90
39079;DHT22;24829;49.208;12.080;2024-02-23T13:42:23;6.70;99.90
39079;DHT22;24829;49.208;12.080;2024-02-23T13:44:49;6.60;99.90
39079;DHT22;24829;49.208;12.080;2024-02-23T13:47:14;6.60;99.90
39079;DHT22;24829;49.208;12.080;2024-02-23T13:49:40;6.50;99.90
39079;DHT22;24829;49.208;12.080;2024-02-23T13:52:06;6.50;99.90
39079;DHT22;24829;49.208;12.080;2024-02-23T13:54:31;6.50;99.90
39079;DHT22;24829;49.208;12.080;2024-02-23T13:56:57;6.50;99.90
39079;DHT22;24829;49.208;12.080;2024-02-23T13:59:22;6.60;99.90
39079;DHT22;24829;49.208;12.080;2024-02-23T14:01:48;6.60;99.90
39079;DHT22;24829;49.208;12.080;2024-02-23T14:04:14;6.60;99.90
39079;DHT22;24829;49.208;12.080;2024-02-23T14:06:39;6.60;99.90
39079;DHT22;24829;49.208;12.080;2024-02-23T14:09:05;6.60;99.90
39079;DHT22;24829;49.208;12.080;2024-02-23T14:11:31;6.60;99.90
39079;DHT22;24829;49.208;12.080;2024-02-23T14:13:57;6.70;99.90
39079;DHT22;24829;49.208;12.080;2024-02-23T14:16:23;6.70;99.90
39079;DHT22;24829;49.208;12.080;2024-02-23T14:18:49;6.70;99.90
39079;DHT22;24829;49.208;12.080;2024-02-23T14:21:15;6.70;99.90
39079;DHT22;24829;49.208;12.080;2024-02-23T14:23:42;6.70;99.90
39079;DHT22;24829;49.208;12.080;2024-02-23T14:26:08;6.70;99.90
39079;DHT22;24829;49.208;12.080;2024-02-23T14:28:33;6.60;99.90
39079;DHT22;24829;49.208;12.080;2024-02-23T14:30:59;6.60;99.90
39079;DHT22;24829;49.208;12.080;2024-02-23T14:33:25;6.60;99.90
39079;DHT22;24829;49.208;12.080;2024-02-23T14:35:51;6.60;99.90
39079;DHT22;24829;49.208;12.080;2024-02-23T14:38:17;6.60;99.90
39079;DHT22;24829;49.208;12.080;2024-02-23T14:40:43;6.60;99.90
39079;DHT22;24829;49.208;12.080;2024-02-23T14:43:08;6.60;99.90
39079;DHT22;24829;49.208;12.080;2024-02-23T14:45:35;6.50;99.90
39079;DHT22;24829;49.208;12.080;2024-02-23T14:48:01;6.50;99.90
39079;DHT22;24829;49.208;12.080;2024-02-23T14:50:27;6.40;99.90
39079;DHT22;24829;49.208;12.080;2024-02-23T14:52:52;6.40;99.90
39079;DHT22;24829;49.208;12.080;2024-02-23T14:55:19;6.40;99.90
39079;DHT22;24829;49.208;12.080;2024-02-23T14:57:45;6.30;99.90
39079;DHT22;24829;49.208;12.080;2024-02-23T15:00:11;6.30;99.90
39079;DHT22;24829;49.208;12.080;2024-02-23T15:02:37;6.30;99.90
39079;DHT22;24829;49.208;12.080;2024-02-23T15:05:05;6.30;99.90
39079;DHT22;24829;49.208;12.080;2024-02-23T15:07:32;6.30;99.90
39079;DHT22;24829;49.208;12.080;2024-02-23T15:09:58;6.30;99.90
39079;DHT22;24829;49.208;12.080;2024-02-23T15:12:25;6.30;99.90
39079;DHT22;24829;49.208;12.080;2024-02-23T15:14:53;6.30;99.90
39079;DHT22;24829;49.208;12.080;2024-02-23T15:17:19;6.30;99.90
39079;DHT22;24829;49.208;12.080;2024-02-23T15:19:45;6.30;99.90
39079;DHT22;24829;49.208;12.080;2024-02-23T15:22:10;6.20;99.90
39079;DHT22;24829;49.208;12.080;2024-02-23T15:24:43;6.20;99.90
39079;DHT22;24829;49.208;12.080;2024-02-23T15:27:11;6.20;99.90